createdAt,value
2018-11-11T00:00:09.817Z,8.27
2018-11-11T00:02:37.888Z,9.20
2018-11-11T00:05:06.965Z,9.70
2018-11-11T00:07:35.157Z,7.67
2018-11-11T00:10:03.338Z,7.73
2018-11-11T00:12:31.458Z,8.87
2018-11-11T00:14:59.610Z,8.33
2018-11-11T00:17:27.721Z,7.30
2018-11-11T00:19:55.838Z,6.80
2018-11-11T00:22:24.298Z,6.97
2018-11-11T00:24:52.638Z,5.93
2018-11-11T00:27:20.777Z,5.73
2018-11-11T00:29:48.884Z,6.43
2018-11-11T00:32:17.047Z,5.73
2018-11-11T00:34:45.199Z,6.30
2018-11-11T00:37:13.300Z,6.23
2018-11-11T00:39:41.474Z,6.73
2018-11-11T00:42:09.533Z,6.80
2018-11-11T00:44:37.619Z,5.77
2018-11-11T00:47:05.995Z,7.27
2018-11-11T00:49:34.232Z,7.27
2018-11-11T00:52:02.426Z,6.53
2018-11-11T00:54:30.496Z,8.60
2018-11-11T00:56:58.661Z,6.50
2018-11-11T00:59:26.751Z,7.80
2018-11-11T01:01:54.895Z,6.00
2018-11-11T01:04:23.229Z,7.53
2018-11-11T01:06:51.365Z,5.90
2018-11-11T01:09:19.639Z,6.03
2018-11-11T01:11:47.797Z,5.53
2018-11-11T01:14:15.894Z,5.57
2018-11-11T01:16:43.992Z,5.10
2018-11-11T01:19:12.207Z,4.53
2018-11-11T01:21:40.292Z,4.90
2018-11-11T01:24:08.482Z,4.10
2018-11-11T01:26:36.744Z,4.73
2018-11-11T01:29:05.185Z,5.10
2018-11-11T01:31:33.275Z,5.50
2018-11-11T01:34:01.401Z,4.37
2018-11-11T01:36:29.496Z,4.97
2018-11-11T01:38:57.618Z,5.03
2018-11-11T01:41:25.700Z,4.60
2018-11-11T01:43:53.786Z,5.07
2018-11-11T01:46:21.910Z,4.90
2018-11-11T01:48:49.997Z,4.30
2018-11-11T01:51:18.122Z,4.70
2018-11-11T01:53:46.204Z,5.77
2018-11-11T01:56:14.278Z,4.77
2018-11-11T01:58:42.366Z,5.23
2018-11-11T02:01:10.453Z,5.53
2018-11-11T02:03:38.576Z,4.97
2018-11-11T02:06:06.664Z,5.10
2018-11-11T02:08:34.751Z,6.30
2018-11-11T02:11:02.865Z,5.30
2018-11-11T02:13:31.037Z,6.37
2018-11-11T02:15:59.133Z,5.87
2018-11-11T02:18:27.279Z,5.20
2018-11-11T02:20:55.434Z,5.80
2018-11-11T02:23:23.482Z,4.90
2018-11-11T02:25:51.570Z,5.77
2018-11-11T02:28:19.649Z,6.80
2018-11-11T02:30:47.793Z,7.23
2018-11-11T02:33:15.914Z,7.53
2018-11-11T02:35:43.977Z,6.73
2018-11-11T02:38:12.045Z,6.50
2018-11-11T02:40:40.137Z,6.00
2018-11-11T02:43:08.237Z,6.60
2018-11-11T02:45:36.339Z,7.13
2018-11-11T02:48:04.464Z,6.67
2018-11-11T02:50:32.537Z,5.07
2018-11-11T02:53:00.633Z,6.53
2018-11-11T02:55:28.719Z,6.03
2018-11-11T02:57:56.804Z,5.00
2018-11-11T03:00:24.906Z,4.30
2018-11-11T03:02:52.969Z,6.30
2018-11-11T03:05:21.034Z,5.57
2018-11-11T03:07:49.144Z,5.40
2018-11-11T03:10:17.896Z,6.73
2018-11-11T03:12:46.794Z,5.80
2018-11-11T03:15:15.555Z,5.77
2018-11-11T03:17:43.654Z,6.37
2018-11-11T03:20:12.549Z,5.80
2018-11-11T03:22:40.652Z,5.83
2018-11-11T03:25:10.330Z,6.20
2018-11-11T03:27:38.491Z,7.37
2018-11-11T03:30:08.085Z,5.77
2018-11-11T03:32:36.211Z,5.33
2018-11-11T03:35:05.894Z,5.30
2018-11-11T03:37:34.004Z,5.57
2018-11-11T03:40:02.068Z,6.63
2018-11-11T03:42:30.176Z,4.83
2018-11-11T03:44:58.231Z,4.10
2018-11-11T03:47:26.376Z,3.43
2018-11-11T03:49:54.477Z,3.60
2018-11-11T03:52:22.563Z,4.00
2018-11-11T03:54:50.684Z,3.33
2018-11-11T03:57:18.755Z,2.93
2018-11-11T03:59:46.921Z,1.90
2018-11-11T04:02:14.999Z,3.00
2018-11-11T04:04:43.054Z,2.70
2018-11-11T04:07:11.153Z,3.30
2018-11-11T04:09:39.237Z,3.07
2018-11-11T04:12:07.318Z,2.57
2018-11-11T04:14:35.405Z,2.97
2018-11-11T04:17:03.481Z,3.80
2018-11-11T04:19:31.558Z,2.10
2018-11-11T04:22:03.960Z,2.23
2018-11-11T04:24:32.058Z,2.60
2018-11-11T04:27:00.133Z,2.60
2018-11-11T04:29:28.244Z,2.97
2018-11-11T04:31:56.305Z,3.67
2018-11-11T04:34:24.410Z,2.70
2018-11-11T04:36:52.528Z,3.20
2018-11-11T04:39:20.681Z,3.40
2018-11-11T04:41:48.709Z,3.43
2018-11-11T04:44:16.764Z,3.27
2018-11-11T04:46:44.849Z,3.57
2018-11-11T04:49:12.936Z,3.20
2018-11-11T04:51:41.025Z,4.60
2018-11-11T04:54:09.180Z,3.93
2018-11-11T04:56:37.277Z,4.30
2018-11-11T04:59:05.492Z,3.57
2018-11-11T05:01:33.882Z,4.00
2018-11-11T05:04:01.920Z,3.80
2018-11-11T05:06:30.027Z,4.57
2018-11-11T05:08:58.119Z,4.53
2018-11-11T05:11:26.190Z,3.23
2018-11-11T05:13:54.488Z,3.73
2018-11-11T05:16:22.605Z,3.90
2018-11-11T05:18:50.684Z,3.30
2018-11-11T05:21:18.822Z,3.17
2018-11-11T05:23:47.044Z,3.77
2018-11-11T05:26:15.099Z,4.70
2018-11-11T05:28:43.216Z,3.70
2018-11-11T05:31:11.291Z,3.40
2018-11-11T05:33:39.566Z,3.80
2018-11-11T05:36:07.653Z,4.13
2018-11-11T05:38:35.748Z,4.10
2018-11-11T05:41:03.836Z,5.10
2018-11-11T05:43:32.050Z,4.00
2018-11-11T05:46:00.161Z,4.30
2018-11-11T05:48:28.244Z,3.60
2018-11-11T05:50:56.377Z,4.07
2018-11-11T05:53:24.456Z,4.10
2018-11-11T05:55:52.528Z,4.13
2018-11-11T05:58:20.590Z,5.00
2018-11-11T06:00:48.729Z,4.47
2018-11-11T06:03:16.786Z,5.37
2018-11-11T06:05:44.897Z,4.43
2018-11-11T06:08:12.982Z,5.77
2018-11-11T06:10:41.107Z,5.10
2018-11-11T06:13:09.242Z,5.23
2018-11-11T06:15:37.348Z,5.10
2018-11-11T06:18:05.573Z,6.10
2018-11-11T06:20:33.674Z,5.40
2018-11-11T06:23:01.783Z,6.43
2018-11-11T06:25:29.839Z,6.23
2018-11-11T06:27:57.902Z,6.83
2018-11-11T06:30:25.952Z,5.43
2018-11-11T06:32:54.051Z,6.87
2018-11-11T06:35:22.184Z,6.83
2018-11-11T06:37:50.477Z,7.37
2018-11-11T06:40:18.605Z,7.00
2018-11-11T06:42:46.701Z,7.10
2018-11-11T06:45:15.736Z,7.00
2018-11-11T06:47:44.521Z,7.20
2018-11-11T06:50:13.757Z,7.00
2018-11-11T06:52:42.504Z,8.10
2018-11-11T06:55:10.900Z,8.00
2018-11-11T06:57:39.413Z,6.73
2018-11-11T07:00:09.533Z,7.37
2018-11-11T07:02:38.945Z,6.57
2018-11-11T07:05:08.302Z,5.60
2018-11-11T07:07:36.741Z,6.30
2018-11-11T07:10:05.484Z,5.07
2018-11-11T07:12:34.450Z,5.07
2018-11-11T07:15:02.519Z,4.87
2018-11-11T07:17:30.799Z,5.77
2018-11-11T07:19:58.914Z,5.00
2018-11-11T07:22:26.977Z,4.80
2018-11-11T07:24:55.096Z,6.60
2018-11-11T07:27:23.205Z,6.00
2018-11-11T07:29:51.281Z,5.37
2018-11-11T07:32:19.477Z,5.93
2018-11-11T07:34:47.549Z,5.97
2018-11-11T07:37:15.729Z,7.83
2018-11-11T07:39:43.821Z,6.80
2018-11-11T07:42:11.917Z,7.50
2018-11-11T07:44:40.044Z,6.73
2018-11-11T07:47:08.094Z,8.60
2018-11-11T07:49:36.186Z,8.40
2018-11-11T07:52:04.293Z,8.33
2018-11-11T07:54:32.421Z,8.27
2018-11-11T07:57:00.507Z,9.40
2018-11-11T07:59:28.644Z,6.67
2018-11-11T08:01:56.885Z,8.60
2018-11-11T08:04:24.932Z,8.73
2018-11-11T08:06:53.023Z,8.30
2018-11-11T08:09:21.085Z,7.77
2018-11-11T08:11:56.835Z,9.33
2018-11-11T08:14:25.413Z,9.00
2018-11-11T08:16:53.556Z,9.10
2018-11-11T08:19:21.574Z,8.43
2018-11-11T08:21:49.632Z,8.50
2018-11-11T08:24:18.196Z,7.90
2018-11-11T08:26:46.306Z,7.90
2018-11-11T08:29:14.393Z,7.40
2018-11-11T08:31:42.919Z,8.13
2018-11-11T08:34:11.022Z,6.60
2018-11-11T08:36:39.133Z,7.10
2018-11-11T08:39:09.695Z,7.67
2018-11-11T08:41:39.285Z,6.57
2018-11-11T08:44:07.705Z,6.07
2018-11-11T08:46:35.804Z,5.40
2018-11-11T08:49:03.864Z,5.43
2018-11-11T08:51:31.962Z,4.90
2018-11-11T08:54:00.025Z,4.77
2018-11-11T08:56:28.112Z,4.00
2018-11-11T08:58:56.172Z,4.10
2018-11-11T09:01:24.265Z,4.83
2018-11-11T09:03:52.677Z,4.10
2018-11-11T09:06:21.359Z,3.90
2018-11-11T09:08:49.813Z,4.77
2018-11-11T09:11:17.983Z,3.83
2018-11-11T09:13:46.118Z,5.37
2018-11-11T09:16:14.217Z,3.90
2018-11-11T09:18:42.333Z,4.03
2018-11-11T09:21:10.502Z,3.40
2018-11-11T09:23:38.615Z,2.80
2018-11-11T09:26:06.959Z,2.93
2018-11-11T09:28:35.045Z,3.00
2018-11-11T09:31:03.490Z,2.10
2018-11-11T09:33:31.647Z,2.67
2018-11-11T09:35:59.747Z,3.33
2018-11-11T09:38:27.820Z,2.87
2018-11-11T09:40:55.962Z,2.67
2018-11-11T09:43:24.034Z,2.57
2018-11-11T09:45:52.118Z,1.90
2018-11-11T09:48:20.198Z,2.63
2018-11-11T09:50:48.274Z,2.50
2018-11-11T09:53:16.335Z,2.20
2018-11-11T09:55:44.420Z,2.53
2018-11-11T09:58:12.522Z,1.43
2018-11-11T10:00:40.612Z,2.07
2018-11-11T10:03:13.968Z,1.80
2018-11-11T10:05:45.028Z,1.47
2018-11-11T10:08:20.754Z,1.77
2018-11-11T10:10:54.253Z,2.77
2018-11-11T10:14:27.321Z,2.10
2018-11-11T10:17:03.018Z,1.90
2018-11-11T10:21:40.803Z,1.70
2018-11-11T10:24:18.440Z,1.37
2018-11-11T10:26:52.154Z,2.00
2018-11-11T10:31:33.549Z,2.00
2018-11-11T10:34:05.182Z,1.43
2018-11-11T10:37:36.520Z,1.37
2018-11-11T10:40:11.976Z,1.53
2018-11-11T10:43:18.568Z,1.40
2018-11-11T10:46:04.973Z,1.30
2018-11-11T10:48:36.912Z,1.50
2018-11-11T10:51:06.142Z,1.30
2018-11-11T10:53:34.237Z,1.10
2018-11-11T10:56:02.326Z,1.20
2018-11-11T10:58:30.397Z,0.87
2018-11-11T11:01:03.907Z,0.83
2018-11-11T11:03:34.459Z,1.10
2018-11-11T11:06:03.373Z,0.80
2018-11-11T11:08:31.517Z,1.20
2018-11-11T11:10:59.604Z,0.70
2018-11-11T11:13:28.941Z,1.10
2018-11-11T11:15:57.538Z,0.83
2018-11-11T11:18:25.651Z,0.80
2018-11-11T11:20:53.720Z,0.97
2018-11-11T11:23:21.861Z,0.70
2018-11-11T11:25:49.977Z,0.60
2018-11-11T11:28:18.117Z,0.70
2018-11-11T11:30:46.225Z,0.80
2018-11-11T11:33:14.352Z,0.80
2018-11-11T11:35:42.639Z,0.63
2018-11-11T11:38:10.630Z,0.90
2018-11-11T11:40:38.661Z,1.10
2018-11-11T11:43:06.768Z,0.60
2018-11-11T11:45:34.906Z,0.70
2018-11-11T11:48:03.011Z,0.90
2018-11-11T11:50:31.157Z,1.20
2018-11-11T11:52:59.232Z,0.80
2018-11-11T11:55:27.256Z,1.43
2018-11-11T11:58:27.478Z,1.00
2018-11-11T12:00:55.656Z,1.17
2018-11-11T12:03:23.750Z,1.50
2018-11-11T12:05:51.804Z,1.27
2018-11-11T12:08:19.928Z,1.40
2018-11-11T12:10:48.005Z,1.30
2018-11-11T12:13:16.705Z,1.80
2018-11-11T12:15:45.282Z,1.40
2018-11-11T12:18:13.376Z,1.80
2018-11-11T12:20:42.060Z,1.60
2018-11-11T12:23:10.638Z,1.43
2018-11-11T12:25:39.348Z,1.57
2018-11-11T12:28:07.941Z,2.00
2018-11-11T12:30:36.053Z,1.67
2018-11-11T12:33:04.146Z,1.67
2018-11-11T12:35:32.276Z,1.67
2018-11-11T12:38:00.750Z,1.87
2018-11-11T12:40:28.837Z,1.67
2018-11-11T12:42:56.977Z,1.70
2018-11-11T12:45:25.142Z,2.00
2018-11-11T12:47:53.338Z,1.50
2018-11-11T12:50:21.548Z,1.20
2018-11-11T12:52:49.603Z,1.60
2018-11-11T12:55:17.752Z,1.43
2018-11-11T12:57:45.765Z,2.00
2018-11-11T13:00:15.039Z,1.90
2018-11-11T13:02:43.150Z,1.40
2018-11-11T13:05:11.765Z,1.47
2018-11-11T13:07:39.895Z,0.90
2018-11-11T13:10:10.669Z,0.90
2018-11-11T13:12:38.918Z,0.80
2018-11-11T13:15:08.393Z,0.90
2018-11-11T13:17:36.870Z,1.50
2018-11-11T13:20:06.702Z,1.03
2018-11-11T13:22:34.908Z,1.87
2018-11-11T13:25:02.857Z,1.03
2018-11-11T13:27:31.014Z,1.27
2018-11-11T13:29:59.144Z,1.10
2018-11-11T13:32:27.288Z,1.10
2018-11-11T13:34:55.445Z,0.73
2018-11-11T13:37:23.530Z,0.80
2018-11-11T13:39:51.684Z,1.00
2018-11-11T13:42:19.778Z,1.00
2018-11-11T13:44:47.977Z,1.10
2018-11-11T13:47:17.621Z,1.00
2018-11-11T13:49:45.817Z,0.70
2018-11-11T13:52:14.661Z,1.00
2018-11-11T13:54:42.742Z,0.63
2018-11-11T14:03:45.811Z,1.63
2018-11-11T14:06:31.430Z,1.50
2018-11-11T14:09:32.877Z,1.87
2018-11-11T14:12:00.933Z,0.97
2018-11-11T14:14:29.237Z,1.90
2018-11-11T14:39:15.326Z,0.90
2018-11-11T14:41:43.789Z,1.30
2018-11-11T14:44:11.901Z,0.90
2018-11-11T14:46:40.781Z,1.50
2018-11-11T14:49:09.829Z,1.17
2018-11-11T14:51:37.894Z,1.00
2018-11-11T14:54:06.153Z,1.90
2018-11-11T14:56:34.300Z,0.93
2018-11-11T14:59:02.445Z,1.20
2018-11-11T15:01:30.596Z,1.40
2018-11-11T15:03:58.727Z,1.10
2018-11-11T15:06:26.759Z,1.00
2018-11-11T15:08:54.850Z,1.43
2018-11-11T15:11:22.956Z,1.73
2018-11-11T15:13:51.041Z,2.13
2018-11-11T15:16:19.150Z,1.30
2018-11-11T15:18:47.301Z,1.23
2018-11-11T15:21:15.391Z,1.90
2018-11-11T15:23:43.499Z,1.97
2018-11-11T15:26:11.597Z,0.90
2018-11-11T15:28:39.733Z,1.20
2018-11-11T15:31:07.949Z,1.20
2018-11-11T15:33:35.964Z,1.80
2018-11-11T15:36:04.096Z,1.30
2018-11-11T15:38:32.209Z,0.90
2018-11-11T15:41:00.348Z,0.80
2018-11-11T15:43:28.468Z,0.70
2018-11-11T15:45:56.573Z,0.60
2018-11-11T15:48:24.670Z,0.93
2018-11-11T15:50:52.781Z,0.87
2018-11-11T15:53:20.917Z,0.83
2018-11-11T15:55:49.004Z,1.60
2018-11-11T15:58:17.148Z,1.23
2018-11-11T16:00:45.262Z,0.80
2018-11-11T16:03:13.395Z,0.97
2018-11-11T16:05:41.511Z,0.83
2018-11-11T16:08:09.635Z,0.63
2018-11-11T16:10:37.777Z,0.97
2018-11-11T16:13:05.837Z,1.00
2018-11-11T16:15:35.611Z,1.40
2018-11-11T16:18:05.361Z,0.70
2018-11-11T16:20:33.514Z,0.73
2018-11-11T16:23:02.636Z,1.77
2018-11-11T16:25:30.834Z,1.40
2018-11-11T16:27:58.868Z,1.50
2018-11-11T16:30:28.589Z,1.57
2018-11-11T16:32:57.308Z,1.43
2018-11-11T16:35:26.601Z,1.30
2018-11-11T16:37:54.798Z,1.00
2018-11-11T16:40:24.282Z,1.20
2018-11-11T16:42:52.649Z,1.60
2018-11-11T16:45:22.976Z,1.67
2018-11-11T16:47:51.180Z,1.37
2018-11-11T16:50:21.936Z,1.43
2018-11-11T16:52:50.635Z,1.50
2018-11-11T16:55:20.112Z,1.60
2018-11-11T16:57:48.323Z,1.47
2018-11-11T17:00:19.940Z,2.30
2018-11-11T17:02:48.710Z,1.97
2018-11-11T17:05:18.419Z,2.70
2018-11-11T17:07:46.731Z,1.90
2018-11-11T17:10:16.242Z,2.20
2018-11-11T17:12:45.292Z,1.87
2018-11-11T17:15:15.850Z,2.20
2018-11-11T17:17:43.912Z,3.00
2018-11-11T17:20:14.215Z,1.70
2018-11-11T17:22:42.678Z,1.90
2018-11-11T17:25:12.025Z,1.67
2018-11-11T17:27:40.139Z,1.50
2018-11-11T17:30:10.706Z,1.67
2018-11-11T17:32:38.949Z,1.43
2018-11-11T17:35:07.836Z,1.63
2018-11-11T17:37:35.929Z,1.30
2018-11-11T17:40:05.089Z,1.27
2018-11-11T17:42:33.168Z,1.83
2018-11-11T17:45:01.270Z,1.43
2018-11-11T17:47:29.562Z,1.50
2018-11-11T17:49:57.717Z,1.27
2018-11-11T17:52:26.121Z,1.90
2018-11-11T17:54:54.233Z,1.60
2018-11-11T17:57:22.346Z,1.73
2018-11-11T17:59:50.507Z,1.60
2018-11-11T18:02:18.654Z,1.57
2018-11-11T18:04:46.940Z,1.97
2018-11-11T18:07:15.097Z,1.60
2018-11-11T18:09:43.209Z,1.60
2018-11-11T18:12:11.312Z,1.23
2018-11-11T18:14:39.474Z,2.30
2018-11-11T18:17:07.627Z,1.70
2018-11-11T18:19:35.753Z,1.93
2018-11-11T18:22:03.846Z,1.63
2018-11-11T18:24:31.961Z,1.70
2018-11-11T18:27:00.122Z,1.50
2018-11-11T18:29:28.359Z,2.50
2018-11-11T18:31:56.485Z,1.70
2018-11-11T18:34:24.691Z,1.80
2018-11-11T18:36:52.775Z,1.30
2018-11-11T18:39:20.869Z,1.40
2018-11-11T18:41:49.025Z,1.57
2018-11-11T18:44:17.172Z,2.00
2018-11-11T18:46:45.254Z,1.93
2018-11-11T18:49:13.515Z,1.33
2018-11-11T18:51:41.604Z,1.90
2018-11-11T18:54:09.711Z,1.30
2018-11-11T18:56:37.920Z,1.90
2018-11-11T18:59:06.189Z,1.80
2018-11-11T19:01:34.309Z,1.77
2018-11-11T19:04:02.396Z,2.03
2018-11-11T19:06:30.483Z,2.27
2018-11-11T19:08:58.673Z,1.73
2018-11-11T19:11:26.818Z,2.50
2018-11-11T19:13:54.933Z,2.80
2018-11-11T19:16:23.034Z,2.33
2018-11-11T19:18:51.255Z,2.50
2018-11-11T19:21:19.311Z,2.67
2018-11-11T19:23:47.524Z,2.70
2018-11-11T19:26:15.660Z,2.20
2018-11-11T19:28:43.793Z,2.00
2018-11-11T19:31:11.951Z,3.20
2018-11-11T19:33:40.506Z,2.10
2018-11-11T19:36:08.605Z,3.10
2018-11-11T19:38:36.714Z,3.70
2018-11-11T19:41:05.066Z,3.33
2018-11-11T19:43:33.186Z,3.10
2018-11-11T19:46:01.257Z,3.00
2018-11-11T19:48:29.350Z,3.53
2018-11-11T19:50:57.457Z,3.37
2018-11-11T19:53:25.573Z,3.30
2018-11-11T19:55:53.633Z,3.10
2018-11-11T19:58:21.705Z,2.60
2018-11-11T20:00:49.810Z,4.10
2018-11-11T20:03:17.972Z,3.10
2018-11-11T20:05:46.130Z,2.80
2018-11-11T20:08:14.144Z,3.23
2018-11-11T20:10:42.203Z,3.10
2018-11-11T20:13:10.293Z,3.50
2018-11-11T20:15:38.375Z,2.70
2018-11-11T20:18:06.523Z,2.93
2018-11-11T20:20:38.073Z,3.20
2018-11-11T20:23:06.322Z,4.03
2018-11-11T20:25:34.771Z,3.23
2018-11-11T20:28:02.977Z,3.20
2018-11-11T20:30:32.557Z,3.37
2018-11-11T20:33:00.703Z,3.37
2018-11-11T20:35:30.167Z,3.80
2018-11-11T20:37:58.209Z,2.97
2018-11-11T20:40:27.219Z,3.67
2018-11-11T20:42:55.847Z,3.43
2018-11-11T20:45:26.744Z,3.30
2018-11-11T20:47:55.037Z,3.50
2018-11-11T20:50:24.638Z,4.10
2018-11-11T20:52:54.429Z,3.43
2018-11-11T20:55:22.801Z,4.10
2018-11-11T20:57:51.240Z,3.63
2018-11-11T21:00:20.796Z,4.40
2018-11-11T21:02:48.923Z,4.13
2018-11-11T21:05:19.388Z,4.13
2018-11-11T21:07:47.589Z,4.77
2018-11-11T21:10:17.831Z,3.90
2018-11-11T21:12:45.899Z,4.60
2018-11-11T21:15:18.289Z,5.07
2018-11-11T21:17:46.922Z,3.93
2018-11-11T21:20:17.487Z,4.83
2018-11-11T21:22:45.591Z,4.80
2018-11-11T21:25:13.827Z,5.10
2018-11-11T21:27:42.899Z,4.70
2018-11-11T21:30:14.552Z,5.20
2018-11-11T21:32:42.697Z,4.50
2018-11-11T21:35:11.330Z,4.87
2018-11-11T21:37:39.960Z,4.37
2018-11-11T21:40:09.405Z,5.40
2018-11-11T21:42:38.185Z,4.60
2018-11-11T21:45:07.496Z,4.30
2018-11-11T21:47:35.724Z,4.60
2018-11-11T21:50:04.005Z,4.20
2018-11-11T21:52:32.137Z,4.93
2018-11-11T21:55:00.193Z,4.53
2018-11-11T21:57:29.477Z,4.67
2018-11-11T21:59:57.603Z,4.97
2018-11-11T22:02:25.762Z,4.83
2018-11-11T22:04:53.836Z,5.53
2018-11-11T22:07:21.918Z,4.37
2018-11-11T22:09:50.030Z,4.80
2018-11-11T22:12:18.081Z,3.90
2018-11-11T22:14:46.169Z,4.50
2018-11-11T22:17:14.462Z,4.40
2018-11-11T22:19:42.574Z,3.90
2018-11-11T22:22:10.652Z,5.10
2018-11-11T22:24:38.729Z,5.17
2018-11-11T22:27:06.928Z,4.00
2018-11-11T22:29:35.032Z,4.23
2018-11-11T22:32:03.109Z,3.87
2018-11-11T22:34:31.327Z,5.10
2018-11-11T22:36:59.448Z,4.27
2018-11-11T22:39:27.577Z,3.80
2018-11-11T22:41:55.635Z,4.20
2018-11-11T22:44:23.756Z,5.00
2018-11-11T22:46:51.848Z,4.10
2018-11-11T22:49:19.927Z,4.23
2018-11-11T22:51:47.994Z,3.83
2018-11-11T22:54:16.076Z,4.20
2018-11-11T22:56:44.168Z,3.93
2018-11-11T22:59:12.369Z,4.70
2018-11-11T23:01:40.480Z,4.43
2018-11-11T23:04:08.578Z,3.97
2018-11-11T23:06:36.709Z,3.40
2018-11-11T23:09:08.789Z,4.80
2018-11-11T23:11:36.926Z,5.20
2018-11-11T23:14:05.182Z,4.63
2018-11-11T23:16:33.414Z,4.50
2018-11-11T23:19:01.499Z,4.10
2018-11-11T23:21:29.596Z,4.10
2018-11-11T23:23:57.721Z,4.00
2018-11-11T23:26:25.788Z,4.27
2018-11-11T23:28:53.902Z,3.77
2018-11-11T23:31:21.977Z,4.00
2018-11-11T23:33:50.088Z,4.00
2018-11-11T23:36:18.165Z,4.13
2018-11-11T23:38:46.421Z,4.20
2018-11-11T23:41:14.524Z,4.47
2018-11-11T23:43:42.713Z,5.97
2018-11-11T23:46:10.813Z,4.10
2018-11-11T23:48:38.930Z,4.60
2018-11-11T23:51:07.003Z,4.03
2018-11-11T23:53:35.156Z,5.10
2018-11-11T23:56:03.234Z,4.50
2018-11-11T23:58:31.324Z,4.87
